Time;durP1;ratioP1;P1;durP2;ratioP2;P2;SDS_P1;SDS_P2;PMS_P1;PMS_P2;Temp;Humidity;BMP_temperature;BMP_pressure;BME280_temperature;BME280_humidity;BME280_pressure;Samples;Min_cycle;Max_cycle;Signal;HPM_P1;HPM_P2
2021/06/07 00:01:34;;;;;;;3.83;3.20;;;;;;;17.32;100.00;98109.25;4973766;28;20121;-80
2021/06/07 00:04:00;;;;;;;6.90;3.58;;;;;;;17.34;100.00;98118.00;4974156;28;20034;-80
2021/06/07 00:06:25;;;;;;;2.53;2.33;;;;;;;17.26;100.00;98118.88;4991361;28;20030;-80
2021/06/07 00:08:51;;;;;;;4.45;3.13;;;;;;;17.26;100.00;98111.38;4991255;28;20108;-78
2021/06/07 00:11:17;;;;;;;6.70;2.67;;;;;;;17.26;100.00;98122.44;4973808;28;20100;-79
2021/06/07 00:13:43;;;;;;;5.90;3.55;;;;;;;17.29;100.00;98120.97;4990950;28;20455;-80
2021/06/07 00:16:10;;;;;;;3.67;2.35;;;;;;;17.25;100.00;98117.25;4991285;28;20023;-80
2021/06/07 00:18:35;;;;;;;4.05;3.35;;;;;;;17.24;100.00;98123.91;4991164;28;20034;-79
2021/06/07 00:21:10;;;;;;;6.03;3.63;;;;;;;17.17;100.00;98127.22;4991167;28;20112;-81
2021/06/07 00:23:35;;;;;;;6.15;3.80;;;;;;;17.12;100.00;98122.69;4973640;28;20033;-78
2021/06/07 00:26:02;;;;;;;8.93;4.35;;;;;;;17.20;100.00;98128.53;4990845;28;20022;-79
2021/06/07 00:28:28;;;;;;;3.92;3.63;;;;;;;17.06;100.00;98135.09;4990868;28;20038;-78
2021/06/07 00:30:54;;;;;;;8.20;4.63;;;;;;;16.95;100.00;98131.06;4973592;28;20472;-77
2021/06/07 00:33:19;;;;;;;4.18;3.78;;;;;;;16.93;100.00;98136.13;4991244;28;20034;-77
2021/06/07 00:35:44;;;;;;;6.50;3.85;;;;;;;17.00;100.00;98130.09;4989583;28;20128;-77
2021/06/07 00:38:10;;;;;;;4.30;3.90;;;;;;;16.98;100.00;98133.16;4993759;28;20030;-78
2021/06/07 00:40:36;;;;;;;4.63;3.95;;;;;;;17.07;100.00;98136.69;4993624;28;20034;-78
2021/06/07 00:43:02;;;;;;;4.30;3.70;;;;;;;16.89;100.00;98129.63;4977545;28;20044;-77
2021/06/07 00:45:30;;;;;;;6.60;3.97;;;;;;;16.90;100.00;98142.31;4977415;28;20121;-77
2021/06/07 00:47:57;;;;;;;4.70;4.10;;;;;;;17.03;100.00;98135.75;4993822;28;20046;-77
2021/06/07 00:50:27;;;;;;;6.80;4.32;;;;;;;17.16;100.00;98133.09;4994850;28;20026;-76
2021/06/07 00:53:03;;;;;;;5.05;3.95;;;;;;;17.13;100.00;98135.34;4994457;28;20045;-77
2021/06/07 00:55:40;;;;;;;6.97;3.90;;;;;;;17.12;100.00;98122.69;4977349;28;20062;-78
2021/06/07 00:58:08;;;;;;;4.57;3.78;;;;;;;17.10;100.00;98129.72;4977267;28;20125;-77
2021/06/07 01:00:36;;;;;;;4.28;3.70;;;;;;;17.08;100.00;98126.44;4976998;28;20034;-78
2021/06/07 01:03:03;;;;;;;4.00;3.67;;;;;;;17.07;100.00;98131.16;4994721;28;20054;-79
2021/06/07 01:05:29;;;;;;;5.20;3.95;;;;;;;17.18;100.00;98131.59;4994453;28;20026;-79
2021/06/07 01:07:55;;;;;;;4.82;3.75;;;;;;;17.17;100.00;98129.97;4994292;28;20411;-77
2021/06/07 01:10:23;;;;;;;4.88;4.38;;;;;;;17.19;100.00;98133.25;4994361;28;20022;-78
2021/06/07 01:12:49;;;;;;;4.30;3.83;;;;;;;17.06;100.00;98132.31;4993872;28;20033;-78
2021/06/07 01:15:15;;;;;;;4.15;3.65;;;;;;;17.06;100.00;98135.09;4994425;28;20026;-78
2021/06/07 01:17:41;;;;;;;4.18;3.78;;;;;;;17.12;100.00;98128.22;4976779;28;20046;-79
2021/06/07 01:20:09;;;;;;;5.15;4.55;;;;;;;17.11;100.00;98132.13;4994053;28;20037;-77
2021/06/07 01:22:35;;;;;;;7.60;4.38;;;;;;;16.91;100.00;98121.84;4994183;28;20395;-77
2021/06/07 01:25:08;;;;;;;5.30;3.45;;;;;;;16.80;100.00;98128.03;4976886;28;20469;-77
2021/06/07 01:27:34;;;;;;;6.78;3.95;;;;;;;16.80;100.00;98130.81;4996601;28;20030;-78
2021/06/07 01:30:06;;;;;;;8.27;4.30;;;;;;;16.74;100.00;98132.13;4997344;28;20100;-78
2021/06/07 01:32:31;;;;;;;6.47;4.68;;;;;;;16.71;100.00;98128.09;4993072;28;20026;-78
2021/06/07 01:34:57;;;;;;;7.30;4.78;;;;;;;16.66;100.00;98125.53;4994112;28;20030;-75
2021/06/07 01:37:22;;;;;;;6.22;5.45;;;;;;;16.70;100.00;98123.69;4993919;28;20057;-78
2021/06/07 01:39:48;;;;;;;10.88;4.90;;;;;;;16.69;100.00;98124.03;4976293;28;20034;-76
2021/06/07 01:42:13;;;;;;;6.70;4.75;;;;;;;16.59;100.00;98127.97;4993815;28;20038;-76
2021/06/07 01:44:39;;;;;;;5.65;4.95;;;;;;;16.71;100.00;98132.81;4993803;28;20037;-79
2021/06/07 01:47:04;;;;;;;8.20;4.75;;;;;;;16.83;100.00;98119.91;4993875;28;20042;-78
2021/06/07 01:49:29;;;;;;;13.82;6.57;;;;;;;16.93;100.00;98125.06;4975286;28;20026;-81
2021/06/07 01:51:55;;;;;;;10.40;5.25;;;;;;;16.75;100.00;98126.28;4993423;28;20026;-80
2021/06/07 01:54:20;;;;;;;5.90;4.88;;;;;;;16.75;100.00;98128.25;4976533;28;20042;-80
2021/06/07 01:56:45;;;;;;;8.50;5.10;;;;;;;16.79;100.00;98129.22;4993526;28;20026;-79
2021/06/07 01:59:11;;;;;;;5.03;4.18;;;;;;;16.78;100.00;98127.56;4993617;28;20467;-78
2021/06/07 02:01:36;;;;;;;5.25;4.28;;;;;;;16.73;100.00;98120.28;4993113;28;20026;-79
2021/06/07 02:04:02;;;;;;;8.27;3.97;;;;;;;16.67;100.00;98127.13;4993811;28;20476;-78
2021/06/07 02:06:27;;;;;;;9.57;4.13;;;;;;;16.65;100.00;98120.31;4993482;28;20495;-82
2021/06/07 02:08:54;;;;;;;4.45;3.70;;;;;;;16.67;100.00;98126.31;4993488;28;20035;-79
2021/06/07 02:11:24;;;;;;;3.90;3.33;;;;;;;16.69;100.00;98118.53;4975843;28;20027;-80
2021/06/07 02:13:52;;;;;;;4.32;3.75;;;;;;;16.78;100.00;98127.56;4975743;28;20547;-79
2021/06/07 02:16:25;;;;;;;6.95;3.70;;;;;;;16.70;100.00;98126.47;4993080;28;20042;-79
2021/06/07 02:18:51;;;;;;;5.28;4.68;;;;;;;16.66;100.00;98120.00;4993069;28;20029;-78
2021/06/07 02:21:19;;;;;;;5.65;3.58;;;;;;;16.74;100.00;98127.44;4992872;28;20029;-80
2021/06/07 02:23:46;;;;;;;5.15;3.88;;;;;;;16.51;100.00;98126.81;4975349;28;20475;-80
2021/06/07 02:26:13;;;;;;;4.68;3.90;;;;;;;16.48;100.00;98123.91;4994759;28;20026;-79
2021/06/07 02:28:45;;;;;;;6.25;4.25;;;;;;;16.60;100.00;98122.09;4993737;28;20472;-79
2021/06/07 02:31:10;;;;;;;5.15;4.57;;;;;;;16.60;100.00;98115.78;4975165;28;20030;-77
2021/06/07 02:33:36;;;;;;;7.60;4.07;;;;;;;16.58;100.00;98107.00;4975653;28;20041;-76
2021/06/07 02:36:02;;;;;;;4.70;4.30;;;;;;;16.60;100.00;98118.56;4992718;28;20411;-78
2021/06/07 02:38:27;;;;;;;5.18;4.18;;;;;;;16.60;100.00;98121.31;4974985;28;20125;-77
2021/06/07 02:40:53;;;;;;;5.68;3.42;;;;;;;16.75;100.00;98118.00;4992886;28;20053;-79
2021/06/07 02:43:19;;;;;;;4.68;3.47;;;;;;;16.79;100.00;98118.94;4992693;28;20037;-79
2021/06/07 02:45:44;;;;;;;5.68;3.70;;;;;;;16.76;100.00;98118.81;4992590;28;20022;-77
2021/06/07 02:48:10;;;;;;;4.40;3.05;;;;;;;16.63;100.00;98114.31;4975218;28;20033;-78
2021/06/07 02:50:40;;;;;;;5.65;3.80;;;;;;;16.67;100.00;98116.06;4975230;28;20088;-78
2021/06/07 02:53:06;;;;;;;5.40;3.65;;;;;;;16.55;100.00;98119.53;4992424;28;20129;-78
2021/06/07 02:55:38;;;;;;;5.43;3.95;;;;;;;16.46;100.00;98115.97;4992716;28;20030;-77
2021/06/07 02:58:05;;;;;;;4.57;3.83;;;;;;;16.48;100.00;98118.38;4991212;28;20049;-78
2021/06/07 03:00:43;;;;;;;3.75;3.35;;;;;;;16.57;100.00;98110.94;4974376;28;20486;-77
2021/06/07 03:03:10;;;;;;;3.92;3.40;;;;;;;16.53;100.00;98113.50;4992821;28;20380;-78
2021/06/07 03:05:37;;;;;;;4.65;3.08;;;;;;;16.53;100.00;98110.75;4975224;28;20022;-77
2021/06/07 03:08:05;;;;;;;3.65;2.80;;;;;;;16.54;100.00;98119.81;4993169;28;20480;-77
2021/06/07 03:10:30;;;;;;;3.40;2.83;;;;;;;16.53;100.00;98107.16;4975417;28;20022;-78
2021/06/07 03:12:56;;;;;;;6.72;3.13;;;;;;;16.56;100.00;98109.31;4992935;28;20057;-78
2021/06/07 03:15:23;;;;;;;3.92;3.22;;;;;;;16.60;100.00;98113.03;4975807;28;20035;-78
2021/06/07 03:17:50;;;;;;;7.85;3.30;;;;;;;16.63;100.00;98115.13;5002502;28;20023;-79
2021/06/07 03:20:23;;;;;;;4.68;3.83;;;;;;;16.47;100.00;98116.78;4990371;28;20069;-79
2021/06/07 03:22:48;;;;;;;5.10;3.42;;;;;;;16.44;100.00;98104.44;5004745;28;20037;-79
2021/06/07 03:25:14;;;;;;;4.78;4.05;;;;;;;16.47;100.00;98116.78;5011229;28;20493;-80
2021/06/07 03:27:41;;;;;;;4.13;3.78;;;;;;;16.37;100.00;98114.38;5011000;28;20022;-80
2021/06/07 03:30:08;;;;;;;5.07;4.55;;;;;;;16.40;100.00;98110.94;5011292;28;20037;-80
2021/06/07 03:32:34;;;;;;;5.22;4.43;;;;;;;16.46;100.00;98113.19;5011567;28;20087;-78
2021/06/07 03:34:59;;;;;;;5.00;4.50;;;;;;;16.42;100.00;98116.94;4990181;28;20030;-79
2021/06/07 03:37:26;;;;;;;8.57;5.35;;;;;;;16.49;100.00;98111.72;4973749;28;20022;-75
2021/06/07 03:39:51;;;;;;;8.02;5.18;;;;;;;16.59;100.00;98114.16;4991349;28;20066;-75
2021/06/07 03:42:17;;;;;;;7.18;6.10;;;;;;;16.49;100.00;98123.59;4991541;28;20066;-76
2021/06/07 03:44:42;;;;;;;6.63;5.97;;;;;;;16.50;100.00;98127.16;4976175;28;20030;-76
2021/06/07 03:47:08;;;;;;;8.35;6.35;;;;;;;16.56;100.00;98131.41;4994535;28;20559;-75
2021/06/07 03:49:33;;;;;;;6.43;5.82;;;;;;;16.61;100.00;98120.16;4991357;28;20085;-76
2021/06/07 03:51:58;;;;;;;7.07;6.22;;;;;;;16.59;100.00;98120.50;4991168;28;20027;-75
2021/06/07 03:54:24;;;;;;;7.65;5.63;;;;;;;16.66;100.00;98120.00;4990720;28;20046;-75
2021/06/07 03:56:49;;;;;;;5.60;4.82;;;;;;;16.52;100.00;98131.22;4989608;28;20022;-77
2021/06/07 03:59:15;;;;;;;5.35;4.85;;;;;;;16.45;100.00;98128.13;4991096;28;20030;-77
2021/06/07 04:01:41;;;;;;;6.72;6.13;;;;;;;16.33;100.00;98132.72;4990943;28;20454;-75
2021/06/07 04:04:07;;;;;;;5.70;4.88;;;;;;;16.36;100.00;98130.13;4973794;28;20034;-78
2021/06/07 04:06:32;;;;;;;13.10;6.28;;;;;;;16.45;100.00;98130.91;4973428;28;20033;-77
2021/06/07 04:09:01;;;;;;;7.22;6.07;;;;;;;16.34;100.00;98134.34;4990495;28;20109;-76
2021/06/07 04:11:26;;;;;;;5.65;5.05;;;;;;;16.39;100.00;98132.22;5001850;28;20052;-77
2021/06/07 04:13:52;;;;;;;7.43;5.57;;;;;;;16.38;100.00;98129.81;4992715;28;20112;-80
2021/06/07 04:16:18;;;;;;;13.35;6.35;;;;;;;16.37;100.00;98144.72;5010970;28;20113;-75
2021/06/07 04:18:44;;;;;;;8.45;6.53;;;;;;;16.44;100.00;98151.38;4993404;28;20014;-76
2021/06/07 04:21:09;;;;;;;6.97;5.75;;;;;;;16.43;100.00;98149.75;5010697;28;20022;-77
2021/06/07 04:23:34;;;;;;;7.32;5.85;;;;;;;16.35;100.00;98144.25;4992556;28;20025;-78
2021/06/07 04:26:00;;;;;;;8.55;5.82;;;;;;;16.39;100.00;98154.31;5010446;28;20443;-77
2021/06/07 04:28:25;;;;;;;6.65;6.03;;;;;;;16.26;100.00;98154.47;5010471;28;20068;-76
2021/06/07 04:30:51;;;;;;;7.88;7.03;;;;;;;16.23;100.00;98153.19;5010484;28;20037;-76
2021/06/07 04:33:16;;;;;;;9.05;6.30;;;;;;;16.18;100.00;98156.13;4993140;28;20483;-77
2021/06/07 04:35:42;;;;;;;6.93;5.65;;;;;;;16.18;100.00;98158.91;5010781;28;20037;-76
2021/06/07 04:38:07;;;;;;;10.02;7.35;;;;;;;16.26;100.00;98151.72;5009918;28;20034;-77
2021/06/07 04:40:36;;;;;;;7.32;6.35;;;;;;;16.26;100.00;98146.19;5010242;28;20042;-77
2021/06/07 04:43:05;;;;;;;5.75;5.15;;;;;;;16.39;100.00;98142.44;4992592;28;20026;-77
2021/06/07 04:45:31;;;;;;;10.95;7.97;;;;;;;16.42;100.00;98150.06;5010329;28;20018;-78
2021/06/07 04:47:56;;;;;;;7.63;5.72;;;;;;;16.41;100.00;98152.03;4992566;28;20049;-78
2021/06/07 04:50:23;;;;;;;7.40;6.30;;;;;;;16.51;100.00;98148.09;5010110;28;20022;-80
2021/06/07 04:53:00;;;;;;;7.80;5.60;;;;;;;16.55;100.00;98158.19;5008493;28;20064;-78
2021/06/07 04:55:36;;;;;;;;;;;;;;;16.65;100.00;98154.28;5010756;28;20072;-79
2021/06/07 04:58:05;;;;;;;9.57;5.35;;;;;;;16.72;100.00;98157.34;5010366;28;20035;-79
2021/06/07 05:00:31;;;;;;;6.82;5.30;;;;;;;16.69;100.00;98155.25;5010289;28;20483;-80
2021/06/07 05:02:58;;;;;;;6.35;4.97;;;;;;;16.77;100.00;98162.69;5010266;28;20071;-81
2021/06/07 05:05:23;;;;;;;6.85;5.53;;;;;;;16.74;100.00;98166.09;5010372;28;20026;-79
2021/06/07 05:07:49;;;;;;;7.65;5.05;;;;;;;16.78;100.00;98157.97;4992214;28;20408;-80
2021/06/07 05:10:15;;;;;;;7.65;5.43;;;;;;;16.82;100.00;98159.72;5007708;28;20027;-77
2021/06/07 05:12:41;;;;;;;6.68;5.65;;;;;;;16.86;100.00;98159.88;4992229;28;20480;-77
2021/06/07 05:15:08;;;;;;;6.07;4.35;;;;;;;16.79;100.00;98156.84;4989323;28;20500;-77
2021/06/07 05:17:34;;;;;;;5.18;4.13;;;;;;;16.74;100.00;98162.53;4990329;28;20202;-76
2021/06/07 05:19:59;;;;;;;5.60;4.25;;;;;;;16.71;100.00;98154.91;4990415;28;20026;-80
2021/06/07 05:22:25;;;;;;;5.53;4.25;;;;;;;16.68;100.00;98159.13;4990337;28;20065;-78
2021/06/07 05:24:50;;;;;;;6.47;4.57;;;;;;;16.66;100.00;98147.63;4974892;28;20011;-78
2021/06/07 05:27:16;;;;;;;8.15;6.22;;;;;;;16.59;100.00;98150.06;4976461;28;20030;-77
2021/06/07 05:29:41;;;;;;;38.45;29.70;;;;;;;16.60;100.00;98143.41;4994230;28;20479;-77
2021/06/07 05:32:07;;;;;;;156.18;120.50;;;;;;;16.60;100.00;98157.22;4993141;28;20117;-79
2021/06/07 05:34:33;;;;;;;13.30;7.63;;;;;;;16.50;100.00;98160.31;5003022;28;20080;-78
2021/06/07 05:36:58;;;;;;;122.93;99.15;;;;;;;16.60;100.00;98154.47;4991633;28;20565;-77
2021/06/07 05:39:24;;;;;;;8.18;6.22;;;;;;;16.56;100.00;98150.72;5001671;28;20018;-78
2021/06/07 05:41:49;;;;;;;5.13;3.90;;;;;;;16.67;100.00;98154.75;4996477;28;20026;-81
2021/06/07 05:44:15;;;;;;;5.68;3.65;;;;;;;16.70;100.00;98154.09;5002154;28;20034;-82
2021/06/07 05:46:40;;;;;;;3.97;3.28;;;;;;;16.62;100.00;98156.88;4984244;28;20145;-80
2021/06/07 05:49:06;;;;;;;6.68;3.60;;;;;;;16.70;100.00;98162.38;5009478;28;20399;-82
2021/06/07 05:51:32;;;;;;;3.08;2.55;;;;;;;16.67;100.00;98163.03;4984021;28;20083;-80
2021/06/07 05:53:57;;;;;;;4.95;3.17;;;;;;;16.65;100.00;98168.09;5003613;28;20033;-78
2021/06/07 05:56:23;;;;;;;4.47;3.40;;;;;;;16.65;100.00;98176.38;5005025;28;20060;-79
2021/06/07 05:58:49;;;;;;;3.42;3.10;;;;;;;16.79;100.00;98176.97;4985273;28;20034;-80
2021/06/07 06:01:15;;;;;;;4.00;3.47;;;;;;;16.85;100.00;98178.41;4987309;28;20030;-81
2021/06/07 06:03:40;;;;;;;3.33;2.50;;;;;;;16.74;100.00;98181.88;5011885;28;20613;-81
2021/06/07 06:06:06;;;;;;;3.42;2.83;;;;;;;16.74;100.00;98179.09;4990094;28;20034;-80
2021/06/07 06:08:31;;;;;;;8.88;3.30;;;;;;;16.81;100.00;98182.19;4983939;28;20021;-81
2021/06/07 06:10:57;;;;;;;8.77;3.40;;;;;;;16.87;100.00;98175.31;5003148;28;20026;-80
2021/06/07 06:13:22;;;;;;;6.60;4.03;;;;;;;17.05;100.00;98169.41;4984395;28;20018;-80
2021/06/07 06:15:48;;;;;;;4.53;3.42;;;;;;;17.00;100.00;98175.13;4985520;28;20044;-80
2021/06/07 06:18:13;;;;;;;4.35;3.10;;;;;;;16.92;100.00;98161.31;5004552;28;20026;-82
2021/06/07 06:20:38;;;;;;;5.20;2.90;;;;;;;16.93;100.00;98154.66;5002293;28;20113;-83
2021/06/07 06:23:04;;;;;;;3.90;2.80;;;;;;;17.24;100.00;98180.03;5001688;28;20061;-81
2021/06/07 06:25:30;;;;;;;3.42;3.13;;;;;;;17.23;100.00;98172.88;4996075;28;20394;-80
2021/06/07 06:27:58;;;;;;;7.53;3.10;;;;;;;17.30;100.00;98192.53;5013239;28;20100;-80
2021/06/07 06:30:27;;;;;;;10.27;2.83;;;;;;;17.20;100.00;98181.06;4989372;28;20068;-79
2021/06/07 06:32:58;;;;;;;6.20;3.10;;;;;;;17.34;100.00;98192.69;4995300;28;20101;-81
2021/06/07 06:35:23;;;;;;;6.93;3.28;;;;;;;17.49;100.00;98190.16;5012863;28;20080;-80
2021/06/07 06:37:50;;;;;;;8.30;2.78;;;;;;;17.33;100.00;98191.03;5009906;28;20022;-80
2021/06/07 06:40:22;;;;;;;6.05;2.13;;;;;;;17.28;100.00;98186.53;4990729;28;20030;-82
2021/06/07 06:42:50;;;;;;;4.03;2.85;;;;;;;17.55;100.00;98204.63;4987406;28;20049;-81
2021/06/07 06:45:16;;;;;;;3.20;2.30;;;;;;;17.48;100.00;98204.28;4976151;28;20022;-83
2021/06/07 06:47:41;;;;;;;4.55;3.10;;;;;;;17.73;100.00;98203.38;4996782;28;20042;-81
2021/06/07 06:50:09;;;;;;;3.63;2.70;;;;;;;17.85;100.00;98203.47;4997357;28;20026;-82
2021/06/07 06:52:34;;;;;;;5.18;2.20;;;;;;;18.07;100.00;98203.09;5006983;28;20037;-86
2021/06/07 06:55:00;;;;;;;3.17;2.40;;;;;;;18.26;100.00;98204.59;5016284;28;20361;-87
2021/06/07 06:57:25;;;;;;;2.88;1.98;;;;;;;18.35;100.00;98219.19;5001079;28;20033;-87
2021/06/07 06:59:51;;;;;;;4.85;2.97;;;;;;;18.45;100.00;98219.56;4983132;28;20027;-87
2021/06/07 07:02:18;;;;;;;3.95;2.40;;;;;;;18.34;100.00;98218.38;4982533;28;20050;-85
2021/06/07 07:04:43;;;;;;;2.80;2.50;;;;;;;18.30;100.00;98216.59;4979755;28;20050;-88
2021/06/07 07:07:09;;;;;;;3.97;2.22;;;;;;;18.36;100.00;98215.25;5000437;28;20026;-86
2021/06/07 07:09:34;;;;;;;2.10;1.80;;;;;;;18.25;100.00;98211.28;5004758;28;20022;-86
2021/06/07 07:11:59;;;;;;;3.97;2.35;;;;;;;18.38;100.00;98218.50;4988230;28;20069;-87
2021/06/07 07:14:25;;;;;;;3.20;1.92;;;;;;;18.45;100.00;98219.56;4988311;28;20061;-86
2021/06/07 07:16:52;;;;;;;3.50;3.17;;;;;;;18.80;100.00;98225.59;5004400;28;20053;-87
2021/06/07 07:19:20;;;;;;;4.22;2.63;;;;;;;18.88;98.81;98223.91;5008776;28;20027;-87
2021/06/07 07:21:45;;;;;;;5.53;2.42;;;;;;;18.90;97.17;98214.09;4992593;28;20018;-86
2021/06/07 07:24:11;;;;;;;4.05;2.60;;;;;;;19.14;97.33;98230.75;5010391;28;20022;-87
2021/06/07 07:26:36;;;;;;;2.97;2.05;;;;;;;19.22;96.07;98226.28;5010345;28;20037;-86
2021/06/07 07:29:02;;;;;;;2.97;2.30;;;;;;;19.14;95.54;98218.84;4999331;28;20049;-88
2021/06/07 07:31:27;;;;;;;2.40;2.20;;;;;;;19.50;96.90;98218.91;5001366;28;20029;-87
2021/06/07 07:33:53;;;;;;;4.22;2.05;;;;;;;19.51;93.01;98216.97;5022923;28;20077;-88
2021/06/07 07:36:18;;;;;;;4.50;2.15;;;;;;;19.81;92.56;98226.66;5010745;28;20133;-88
2021/06/07 07:38:44;;;;;;;2.13;1.77;;;;;;;19.89;92.24;98213.81;4976993;28;20559;-86
2021/06/07 07:41:11;;;;;;;3.38;2.03;;;;;;;20.17;89.45;98223.78;5002511;28;20021;-86
2021/06/07 07:43:37;;;;;;;4.45;2.00;;;;;;;19.87;89.75;98216.91;5004781;28;20022;-86
2021/06/07 07:46:03;;;;;;;2.97;2.55;;;;;;;20.34;89.88;98221.91;5021005;28;20085;-86
2021/06/07 07:48:31;;;;;;;3.28;2.60;;;;;;;20.38;88.59;98217.28;5012764;28;20423;-86
2021/06/07 07:50:57;;;;;;;3.42;2.58;;;;;;;20.87;84.84;98220.63;5006514;28;20029;-86
2021/06/07 07:53:24;;;;;;;3.00;2.67;;;;;;;20.76;86.16;98223.16;5005276;28;20031;-87
2021/06/07 07:55:52;;;;;;;4.50;2.90;;;;;;;20.87;85.96;98217.84;5015364;28;20030;-86
2021/06/07 07:58:18;;;;;;;3.38;2.35;;;;;;;21.31;81.83;98220.28;5000071;28;20022;-86
2021/06/07 08:00:43;;;;;;;5.75;3.13;;;;;;;21.13;83.32;98221.78;5015712;28;20506;-86
2021/06/07 08:03:09;;;;;;;6.65;2.17;;;;;;;21.14;80.11;98219.81;4994224;28;20022;-86
2021/06/07 08:05:35;;;;;;;3.58;2.58;;;;;;;21.20;84.23;98221.19;5019963;28;20033;-86
2021/06/07 08:08:02;;;;;;;2.97;2.40;;;;;;;21.61;81.56;98217.03;5001414;28;20045;-86
2021/06/07 08:10:28;;;;;;;2.65;2.45;;;;;;;21.42;82.90;98216.97;5001899;28;20026;-83
2021/06/07 08:12:53;;;;;;;3.85;3.05;;;;;;;21.56;82.60;98226.44;5018423;28;20050;-85
2021/06/07 08:15:19;;;;;;;2.92;2.63;;;;;;;21.59;80.79;98225.72;4993236;28;20364;-79
2021/06/07 08:17:45;;;;;;;4.03;2.80;;;;;;;21.84;81.09;98229.09;4992415;28;20064;-75
2021/06/07 08:20:15;;;;;;;3.00;2.70;;;;;;;21.22;81.16;98225.22;4996790;28;20131;-79
2021/06/07 08:22:41;;;;;;;3.70;3.30;;;;;;;21.28;82.90;98229.34;4974972;28;20041;-78
2021/06/07 08:25:08;;;;;;;7.22;3.58;;;;;;;21.42;83.01;98233.66;4989848;28;20037;-77
2021/06/07 08:27:33;;;;;;;2.85;2.53;;;;;;;21.49;82.35;98231.84;4971716;28;20043;-77
2021/06/07 08:29:58;;;;;;;3.58;3.13;;;;;;;21.22;83.68;98225.22;4989872;28;20021;-78
2021/06/07 08:32:24;;;;;;;3.60;3.30;;;;;;;21.40;82.32;98227.63;4989245;28;20030;-77
2021/06/07 08:34:49;;;;;;;5.57;2.83;;;;;;;21.61;82.40;98222.59;4980215;28;20056;-78
2021/06/07 08:37:15;;;;;;;5.18;3.10;;;;;;;21.85;80.15;98225.16;4993074;28;20026;-78
2021/06/07 08:39:40;;;;;;;4.72;2.60;;;;;;;21.76;80.62;98235.69;5009004;28;20125;-79
2021/06/07 08:42:06;;;;;;;3.78;3.42;;;;;;;21.87;79.95;98233.94;4991737;28;20077;-77
2021/06/07 08:44:32;;;;;;;5.65;3.28;;;;;;;21.50;80.63;98239.03;5010092;28;20502;-77
2021/06/07 08:46:58;;;;;;;7.03;2.95;;;;;;;21.78;80.81;98230.56;4991191;28;20034;-78
2021/06/07 08:49:24;;;;;;;4.82;3.70;;;;;;;21.51;83.60;98231.50;4985105;28;20041;-79
2021/06/07 08:51:51;;;;;;;11.65;4.65;;;;;;;21.61;82.36;98242.91;4989271;28;20475;-76
2021/06/07 08:54:16;;;;;;;7.43;3.88;;;;;;;22.05;81.34;98235.22;4989597;28;20026;-75
2021/06/07 08:56:45;;;;;;;4.63;3.22;;;;;;;21.86;80.98;98233.13;4988849;28;20464;-75
2021/06/07 08:59:14;;;;;;;8.38;3.60;;;;;;;22.04;81.06;98233.59;4974423;28;20391;-77
2021/06/07 09:01:41;;;;;;;4.25;3.50;;;;;;;22.02;80.98;98224.00;4975738;28;20026;-77
2021/06/07 09:04:15;;;;;;;4.25;3.55;;;;;;;21.57;81.97;98225.28;4991913;28;20039;-76
2021/06/07 09:06:47;;;;;;;6.40;3.85;;;;;;;21.52;82.54;98222.75;4993416;28;20034;-77
2021/06/07 09:09:15;;;;;;;5.65;4.43;;;;;;;21.45;79.50;98238.50;4975359;28;20383;-79
2021/06/07 09:11:56;;;;;;;7.05;5.05;;;;;;;21.42;78.91;98223.34;4991613;28;20077;-78
2021/06/07 09:14:27;;;;;;;4.25;3.85;;;;;;;21.44;79.17;98218.22;4975593;28;20039;-78
2021/06/07 09:16:54;;;;;;;5.20;4.30;;;;;;;21.51;79.11;98228.72;4993081;28;20391;-78
2021/06/07 09:19:28;;;;;;;7.85;4.78;;;;;;;21.67;77.35;98221.16;4991388;28;20034;-77
2021/06/07 09:22:15;;;;;;;4.88;4.38;;;;;;;21.58;78.44;98223.31;4975357;28;20053;-80
2021/06/07 09:25:01;;;;;;;6.85;4.63;;;;;;;21.60;78.48;98223.75;4975220;28;20022;-76
2021/06/07 09:27:27;;;;;;;8.07;5.03;;;;;;;21.48;79.22;98232.22;4974895;28;20404;-74
2021/06/07 09:29:52;;;;;;;4.93;4.47;;;;;;;21.63;77.89;98234.19;5003306;28;20041;-75
2021/06/07 09:32:19;;;;;;;6.63;4.75;;;;;;;21.81;76.54;98229.84;4994559;28;20087;-79
2021/06/07 09:34:45;;;;;;;5.10;4.32;;;;;;;21.81;76.65;98229.84;5012297;28;20108;-79
2021/06/07 09:37:13;;;;;;;6.35;5.75;;;;;;;22.05;76.87;98221.28;4992444;28;20032;-78
2021/06/07 09:39:40;;;;;;;7.07;4.53;;;;;;;22.27;74.86;98226.13;5005003;28;20395;-78
2021/06/07 09:42:13;;;;;;;6.05;5.55;;;;;;;22.14;73.32;98223.88;4982287;28;20060;-79
2021/06/07 09:44:51;;;;;;;5.28;4.78;;;;;;;22.69;72.42;98231.03;4996049;28;20038;-81
2021/06/07 09:47:33;;;;;;;5.32;4.82;;;;;;;22.93;69.76;98225.13;4977666;28;20432;-79
2021/06/07 09:50:05;;;;;;;4.50;4.10;;;;;;;23.02;70.55;98231.28;4999212;28;20496;-82
2021/06/07 09:52:55;;;;;;;4.30;3.45;;;;;;;23.12;68.33;98232.66;5004814;28;20019;-83
2021/06/07 09:55:22;;;;;;;8.20;4.25;;;;;;;23.61;66.79;98221.56;4984948;28;20045;-82
2021/06/07 09:57:50;;;;;;;4.30;3.63;;;;;;;23.27;68.10;98218.59;4985465;28;20037;-84
2021/06/07 10:00:40;;;;;;;6.65;4.30;;;;;;;23.22;67.77;98218.06;4986468;28;20427;-83
2021/06/07 10:03:25;;;;;;;4.47;4.07;;;;;;;22.53;68.50;98222.69;4981940;28;20041;-81
2021/06/07 10:05:53;;;;;;;6.50;3.88;;;;;;;22.18;68.40;98217.19;4987327;28;20026;-82
2021/06/07 10:08:22;;;;;;;4.13;3.72;;;;;;;22.43;67.79;98218.53;4985459;28;20033;-83
2021/06/07 10:10:48;;;;;;;4.35;3.65;;;;;;;22.72;66.59;98217.16;4983367;28;20022;-84
2021/06/07 10:13:13;;;;;;;4.95;3.75;;;;;;;22.64;67.11;98212.59;5002058;28;20030;-81
2021/06/07 10:15:48;;;;;;;4.70;3.65;;;;;;;22.94;67.35;98213.59;4986754;28;20053;-82
2021/06/07 10:18:19;;;;;;;6.15;3.92;;;;;;;22.43;66.48;98203.75;4990581;28;20386;-84
2021/06/07 10:20:46;;;;;;;4.65;3.35;;;;;;;22.55;67.01;98209.22;5004607;28;20022;-85
2021/06/07 10:23:12;;;;;;;6.43;3.92;;;;;;;22.21;67.25;98210.09;4986387;28;20041;-84
2021/06/07 10:25:37;;;;;;;5.93;3.63;;;;;;;22.28;68.91;98208.25;4994018;28;20034;-82
2021/06/07 10:28:03;;;;;;;4.10;3.70;;;;;;;22.32;67.34;98211.94;5007624;28;20089;-85
2021/06/07 10:30:29;;;;;;;5.60;4.38;;;;;;;22.10;76.28;98217.41;4986053;28;20398;-84
2021/06/07 10:32:55;;;;;;;5.97;5.40;;;;;;;21.26;83.09;98214.19;5002902;28;20142;-82
2021/06/07 10:35:35;;;;;;;7.22;5.57;;;;;;;21.20;84.96;98216.44;5004784;28;20105;-85
2021/06/07 10:38:09;;;;;;;7.00;5.75;;;;;;;21.06;84.91;98224.34;5009956;28;20053;-84
2021/06/07 10:40:41;;;;;;;6.40;5.65;;;;;;;20.99;85.82;98224.16;4989024;28;20026;-82
2021/06/07 10:43:08;;;;;;;6.32;5.47;;;;;;;21.15;84.58;98224.19;4999402;28;20022;-82
2021/06/07 10:45:37;;;;;;;7.50;4.95;;;;;;;21.34;83.15;98222.34;4998263;28;20037;-84
2021/06/07 10:48:05;;;;;;;6.72;4.90;;;;;;;22.37;78.84;98225.56;4984715;28;20038;-83
2021/06/07 10:50:34;;;;;;;4.88;4.40;;;;;;;23.33;73.74;98219.91;4986611;28;20064;-86
2021/06/07 10:53:06;;;;;;;5.47;4.72;;;;;;;23.16;73.60;98223.16;5007582;28;20030;-83
2021/06/07 10:55:35;;;;;;;7.32;4.30;;;;;;;23.26;71.61;98219.75;5004199;28;20025;-81
2021/06/07 10:58:06;;;;;;;3.90;3.50;;;;;;;22.95;70.21;98217.19;4985502;28;20034;-86
2021/06/07 11:00:41;;;;;;;5.93;4.95;;;;;;;23.53;68.60;98209.47;5008262;28;20052;-85
2021/06/07 11:03:32;;;;;;;4.80;3.47;;;;;;;24.25;67.88;98212.16;4994586;28;20049;-79
2021/06/07 11:06:05;;;;;;;6.05;4.18;;;;;;;23.52;66.60;98209.84;4956423;28;20042;-85
2021/06/07 11:08:36;;;;;;;4.00;3.42;;;;;;;23.62;65.43;98206.44;4981534;28;20096;-81
2021/06/07 11:11:13;;;;;;;8.35;4.55;;;;;;;23.54;67.72;98204.69;5000555;28;20030;-84
2021/06/07 11:13:47;;;;;;;4.18;3.72;;;;;;;22.94;69.52;98202.44;4981951;28;20112;-88
2021/06/07 11:16:38;;;;;;;7.97;4.32;;;;;;;23.65;66.90;98200.09;5004815;28;20479;-85
2021/06/07 11:19:18;;;;;;;5.47;4.18;;;;;;;23.99;67.09;98199.00;4986398;28;20029;-86
2021/06/07 11:22:02;;;;;;;7.05;4.43;;;;;;;23.78;67.24;98187.50;5006611;28;20033;-85
2021/06/07 11:24:33;;;;;;;4.65;4.10;;;;;;;24.08;65.42;98182.75;5003001;28;20032;-85
2021/06/07 11:27:00;;;;;;;4.43;4.03;;;;;;;24.71;63.49;98179.19;4990964;28;20035;-84
2021/06/07 11:29:26;;;;;;;5.22;3.80;;;;;;;24.41;62.87;98185.63;4988375;28;20116;-83